sensor_id;sensor_type;location;lat;lon;timestamp;P1;durP1;ratioP1;P2;durP2;ratioP2
3307;SDS011;1666;48.898;9.182;2023-03-01T00:00:14;23.40;;;14.18;;
3307;SDS011;1666;48.898;9.182;2023-03-01T00:02:44;27.58;;;15.20;;
3307;SDS011;1666;48.898;9.182;2023-03-01T00:05:13;23.50;;;13.68;;
3307;SDS011;1666;48.898;9.182;2023-03-01T00:07:43;25.80;;;14.00;;
3307;SDS011;1666;48.898;9.182;2023-03-01T00:10:16;26.33;;;14.60;;
3307;SDS011;1666;48.898;9.182;2023-03-01T00:12:46;21.27;;;12.98;;
3307;SDS011;1666;48.898;9.182;2023-03-01T00:15:15;27.15;;;14.07;;
3307;SDS011;1666;48.898;9.182;2023-03-01T00:17:45;23.45;;;13.63;;
3307;SDS011;1666;48.898;9.182;2023-03-01T00:20:15;22.30;;;13.15;;
3307;SDS011;1666;48.898;9.182;2023-03-01T00:22:45;24.13;;;13.57;;
3307;SDS011;1666;48.898;9.182;2023-03-01T00:25:18;25.98;;;14.57;;
3307;SDS011;1666;48.898;9.182;2023-03-01T00:27:48;27.42;;;13.63;;
3307;SDS011;1666;48.898;9.182;2023-03-01T00:30:18;28.23;;;14.95;;
3307;SDS011;1666;48.898;9.182;2023-03-01T00:32:47;25.63;;;13.93;;
3307;SDS011;1666;48.898;9.182;2023-03-01T00:35:17;25.90;;;13.70;;
3307;SDS011;1666;48.898;9.182;2023-03-01T00:37:49;27.25;;;14.85;;
3307;SDS011;1666;48.898;9.182;2023-03-01T00:40:26;24.55;;;14.38;;
3307;SDS011;1666;48.898;9.182;2023-03-01T00:42:57;24.30;;;15.03;;
3307;SDS011;1666;48.898;9.182;2023-03-01T00:45:27;24.38;;;14.75;;
3307;SDS011;1666;48.898;9.182;2023-03-01T00:47:57;28.73;;;14.68;;
3307;SDS011;1666;48.898;9.182;2023-03-01T00:50:27;28.13;;;14.35;;
3307;SDS011;1666;48.898;9.182;2023-03-01T00:52:57;23.35;;;12.73;;
3307;SDS011;1666;48.898;9.182;2023-03-01T00:55:30;23.45;;;13.20;;
3307;SDS011;1666;48.898;9.182;2023-03-01T00:58:00;27.55;;;15.77;;
3307;SDS011;1666;48.898;9.182;2023-03-01T01:00:29;24.35;;;14.23;;
3307;SDS011;1666;48.898;9.182;2023-03-01T01:03:00;23.60;;;13.95;;
3307;SDS011;1666;48.898;9.182;2023-03-01T01:05:29;27.48;;;15.00;;
3307;SDS011;1666;48.898;9.182;2023-03-01T01:07:59;27.10;;;14.35;;
3307;SDS011;1666;48.898;9.182;2023-03-01T01:10:32;29.50;;;15.07;;
3307;SDS011;1666;48.898;9.182;2023-03-01T01:13:02;24.30;;;14.75;;
3307;SDS011;1666;48.898;9.182;2023-03-01T01:15:33;27.48;;;15.07;;
3307;SDS011;1666;48.898;9.182;2023-03-01T01:18:03;24.85;;;14.05;;
3307;SDS011;1666;48.898;9.182;2023-03-01T01:20:34;26.88;;;14.57;;
3307;SDS011;1666;48.898;9.182;2023-03-01T01:23:05;25.88;;;14.98;;
3307;SDS011;1666;48.898;9.182;2023-03-01T01:25:38;30.23;;;16.05;;
3307;SDS011;1666;48.898;9.182;2023-03-01T01:28:08;25.60;;;14.15;;
3307;SDS011;1666;48.898;9.182;2023-03-01T01:30:37;28.27;;;16.00;;
3307;SDS011;1666;48.898;9.182;2023-03-01T01:33:07;26.35;;;15.25;;
3307;SDS011;1666;48.898;9.182;2023-03-01T01:35:37;25.15;;;13.88;;
3307;SDS011;1666;48.898;9.182;2023-03-01T01:38:07;27.48;;;15.23;;
3307;SDS011;1666;48.898;9.182;2023-03-01T01:40:45;26.75;;;15.48;;
3307;SDS011;1666;48.898;9.182;2023-03-01T01:43:20;26.50;;;14.90;;
3307;SDS011;1666;48.898;9.182;2023-03-01T01:45:52;26.83;;;15.90;;
3307;SDS011;1666;48.898;9.182;2023-03-01T01:48:27;28.08;;;16.02;;
3307;SDS011;1666;48.898;9.182;2023-03-01T01:51:07;28.10;;;15.27;;
3307;SDS011;1666;48.898;9.182;2023-03-01T01:53:40;25.48;;;14.52;;
3307;SDS011;1666;48.898;9.182;2023-03-01T01:56:16;27.30;;;14.80;;
3307;SDS011;1666;48.898;9.182;2023-03-01T01:58:47;28.67;;;14.77;;
3307;SDS011;1666;48.898;9.182;2023-03-01T02:01:18;26.23;;;15.20;;
3307;SDS011;1666;48.898;9.182;2023-03-01T02:03:48;27.10;;;15.07;;
3307;SDS011;1666;48.898;9.182;2023-03-01T02:06:20;27.33;;;15.18;;
3307;SDS011;1666;48.898;9.182;2023-03-01T02:08:57;29.33;;;17.17;;
3307;SDS011;1666;48.898;9.182;2023-03-01T02:11:31;23.10;;;13.88;;
3307;SDS011;1666;48.898;9.182;2023-03-01T02:14:04;29.75;;;14.95;;
3307;SDS011;1666;48.898;9.182;2023-03-01T02:16:34;27.90;;;15.05;;
3307;SDS011;1666;48.898;9.182;2023-03-01T02:19:04;30.45;;;15.60;;
3307;SDS011;1666;48.898;9.182;2023-03-01T02:21:37;29.15;;;15.32;;
3307;SDS011;1666;48.898;9.182;2023-03-01T02:24:18;25.00;;;14.70;;
3307;SDS011;1666;48.898;9.182;2023-03-01T02:26:57;26.67;;;14.75;;
3307;SDS011;1666;48.898;9.182;2023-03-01T02:29:30;27.17;;;15.05;;
3307;SDS011;1666;48.898;9.182;2023-03-01T02:32:00;27.40;;;16.95;;
3307;SDS011;1666;48.898;9.182;2023-03-01T02:34:30;32.50;;;16.02;;
3307;SDS011;1666;48.898;9.182;2023-03-01T02:37:02;27.80;;;15.45;;
3307;SDS011;1666;48.898;9.182;2023-03-01T02:39:34;28.58;;;15.82;;
3307;SDS011;1666;48.898;9.182;2023-03-01T02:42:09;26.10;;;14.77;;
3307;SDS011;1666;48.898;9.182;2023-03-01T02:44:45;27.90;;;14.65;;
3307;SDS011;1666;48.898;9.182;2023-03-01T02:47:15;28.65;;;15.10;;
3307;SDS011;1666;48.898;9.182;2023-03-01T02:49:44;27.77;;;15.18;;
3307;SDS011;1666;48.898;9.182;2023-03-01T02:52:17;27.55;;;15.60;;
3307;SDS011;1666;48.898;9.182;2023-03-01T02:55:08;26.08;;;15.13;;
3307;SDS011;1666;48.898;9.182;2023-03-01T02:57:40;29.58;;;15.80;;
3307;SDS011;1666;48.898;9.182;2023-03-01T03:00:17;26.23;;;14.95;;
3307;SDS011;1666;48.898;9.182;2023-03-01T03:02:50;26.60;;;15.48;;
3307;SDS011;1666;48.898;9.182;2023-03-01T03:05:24;24.65;;;14.60;;
3307;SDS011;1666;48.898;9.182;2023-03-01T03:07:55;29.50;;;15.80;;
3307;SDS011;1666;48.898;9.182;2023-03-01T03:10:27;28.98;;;15.48;;
3307;SDS011;1666;48.898;9.182;2023-03-01T03:12:59;29.48;;;15.40;;
3307;SDS011;1666;48.898;9.182;2023-03-01T03:15:33;28.15;;;15.88;;
3307;SDS011;1666;48.898;9.182;2023-03-01T03:18:06;27.85;;;15.65;;
3307;SDS011;1666;48.898;9.182;2023-03-01T03:20:39;29.60;;;15.27;;
3307;SDS011;1666;48.898;9.182;2023-03-01T03:23:10;27.40;;;15.10;;
3307;SDS011;1666;48.898;9.182;2023-03-01T03:25:40;28.25;;;15.00;;
3307;SDS011;1666;48.898;9.182;2023-03-01T03:28:10;28.10;;;15.13;;
3307;SDS011;1666;48.898;9.182;2023-03-01T03:30:45;29.38;;;14.80;;
3307;SDS011;1666;48.898;9.182;2023-03-01T03:33:16;27.73;;;14.57;;
3307;SDS011;1666;48.898;9.182;2023-03-01T03:35:46;27.27;;;15.27;;
3307;SDS011;1666;48.898;9.182;2023-03-01T03:38:18;29.85;;;16.30;;
3307;SDS011;1666;48.898;9.182;2023-03-01T03:40:49;25.98;;;14.20;;
3307;SDS011;1666;48.898;9.182;2023-03-01T03:43:21;27.83;;;15.45;;
3307;SDS011;1666;48.898;9.182;2023-03-01T03:45:54;24.92;;;15.20;;
3307;SDS011;1666;48.898;9.182;2023-03-01T03:48:26;26.27;;;15.20;;
3307;SDS011;1666;48.898;9.182;2023-03-01T03:50:56;29.20;;;15.32;;
3307;SDS011;1666;48.898;9.182;2023-03-01T03:53:26;30.05;;;16.35;;
3307;SDS011;1666;48.898;9.182;2023-03-01T03:55:58;28.92;;;16.08;;
3307;SDS011;1666;48.898;9.182;2023-03-01T03:58:27;25.63;;;13.75;;
3307;SDS011;1666;48.898;9.182;2023-03-01T04:01:01;25.70;;;15.00;;
3307;SDS011;1666;48.898;9.182;2023-03-01T04:03:31;26.00;;;14.77;;
3307;SDS011;1666;48.898;9.182;2023-03-01T04:06:02;26.50;;;14.80;;
3307;SDS011;1666;48.898;9.182;2023-03-01T04:08:33;25.08;;;14.45;;
3307;SDS011;1666;48.898;9.182;2023-03-01T04:11:03;31.15;;;15.88;;
3307;SDS011;1666;48.898;9.182;2023-03-01T04:13:46;28.20;;;15.95;;
3307;SDS011;1666;48.898;9.182;2023-03-01T04:16:19;26.33;;;15.07;;
3307;SDS011;1666;48.898;9.182;2023-03-01T04:18:49;24.48;;;14.32;;
3307;SDS011;1666;48.898;9.182;2023-03-01T04:21:20;28.45;;;15.65;;
3307;SDS011;1666;48.898;9.182;2023-03-01T04:23:50;26.48;;;15.50;;
3307;SDS011;1666;48.898;9.182;2023-03-01T04:26:20;27.20;;;15.15;;
3307;SDS011;1666;48.898;9.182;2023-03-01T04:28:50;28.67;;;15.65;;
3307;SDS011;1666;48.898;9.182;2023-03-01T04:31:22;27.52;;;15.32;;
3307;SDS011;1666;48.898;9.182;2023-03-01T04:33:53;26.85;;;15.15;;
3307;SDS011;1666;48.898;9.182;2023-03-01T04:36:25;28.60;;;14.95;;
3307;SDS011;1666;48.898;9.182;2023-03-01T04:38:57;27.75;;;16.00;;
3307;SDS011;1666;48.898;9.182;2023-03-01T04:41:39;29.88;;;15.40;;
3307;SDS011;1666;48.898;9.182;2023-03-01T04:44:10;30.83;;;16.15;;
3307;SDS011;1666;48.898;9.182;2023-03-01T04:46:42;28.33;;;15.40;;
3307;SDS011;1666;48.898;9.182;2023-03-01T04:49:12;27.85;;;15.23;;
3307;SDS011;1666;48.898;9.182;2023-03-01T04:51:42;27.90;;;15.35;;
3307;SDS011;1666;48.898;9.182;2023-03-01T04:54:12;29.73;;;15.88;;
3307;SDS011;1666;48.898;9.182;2023-03-01T04:56:42;27.08;;;14.48;;
3307;SDS011;1666;48.898;9.182;2023-03-01T04:59:12;29.00;;;15.07;;
3307;SDS011;1666;48.898;9.182;2023-03-01T05:01:44;28.30;;;15.90;;
3307;SDS011;1666;48.898;9.182;2023-03-01T05:04:14;27.00;;;15.25;;
3307;SDS011;1666;48.898;9.182;2023-03-01T05:06:44;29.02;;;16.10;;
3307;SDS011;1666;48.898;9.182;2023-03-01T05:09:14;26.65;;;15.18;;
3307;SDS011;1666;48.898;9.182;2023-03-01T05:11:44;28.67;;;15.60;;
3307;SDS011;1666;48.898;9.182;2023-03-01T05:14:14;30.80;;;15.68;;
3307;SDS011;1666;48.898;9.182;2023-03-01T05:16:46;30.98;;;16.70;;
3307;SDS011;1666;48.898;9.182;2023-03-01T05:19:16;32.90;;;16.52;;
3307;SDS011;1666;48.898;9.182;2023-03-01T05:21:49;26.23;;;15.85;;
3307;SDS011;1666;48.898;9.182;2023-03-01T05:24:32;27.40;;;15.55;;
3307;SDS011;1666;48.898;9.182;2023-03-01T05:27:03;31.23;;;15.65;;
3307;SDS011;1666;48.898;9.182;2023-03-01T05:29:33;24.60;;;13.95;;
3307;SDS011;1666;48.898;9.182;2023-03-01T05:32:05;32.20;;;16.35;;
3307;SDS011;1666;48.898;9.182;2023-03-01T05:34:35;27.40;;;14.27;;
3307;SDS011;1666;48.898;9.182;2023-03-01T05:37:05;28.40;;;15.82;;
3307;SDS011;1666;48.898;9.182;2023-03-01T05:39:36;29.48;;;15.88;;
3307;SDS011;1666;48.898;9.182;2023-03-01T05:42:05;26.42;;;15.43;;
3307;SDS011;1666;48.898;9.182;2023-03-01T05:44:37;30.90;;;16.02;;
3307;SDS011;1666;48.898;9.182;2023-03-01T05:47:09;24.92;;;14.57;;
3307;SDS011;1666;48.898;9.182;2023-03-01T05:49:39;27.65;;;15.57;;
3307;SDS011;1666;48.898;9.182;2023-03-01T05:52:09;28.60;;;15.57;;
3307;SDS011;1666;48.898;9.182;2023-03-01T05:54:39;33.90;;;16.02;;
3307;SDS011;1666;48.898;9.182;2023-03-01T05:57:08;24.10;;;14.25;;
3307;SDS011;1666;48.898;9.182;2023-03-01T05:59:38;26.58;;;14.43;;
3307;SDS011;1666;48.898;9.182;2023-03-01T06:02:11;31.52;;;16.50;;
3307;SDS011;1666;48.898;9.182;2023-03-01T06:04:40;27.98;;;14.73;;
3307;SDS011;1666;48.898;9.182;2023-03-01T06:07:10;28.77;;;15.10;;
3307;SDS011;1666;48.898;9.182;2023-03-01T06:09:40;28.73;;;15.75;;
3307;SDS011;1666;48.898;9.182;2023-03-01T06:12:10;28.85;;;16.42;;
3307;SDS011;1666;48.898;9.182;2023-03-01T06:14:40;31.52;;;15.70;;
3307;SDS011;1666;48.898;9.182;2023-03-01T06:17:12;33.58;;;16.27;;
3307;SDS011;1666;48.898;9.182;2023-03-01T06:19:42;32.00;;;16.60;;
3307;SDS011;1666;48.898;9.182;2023-03-01T06:22:12;31.88;;;16.48;;
3307;SDS011;1666;48.898;9.182;2023-03-01T06:24:42;32.28;;;16.73;;
3307;SDS011;1666;48.898;9.182;2023-03-01T06:27:12;33.15;;;16.02;;
3307;SDS011;1666;48.898;9.182;2023-03-01T06:29:42;30.02;;;16.65;;
3307;SDS011;1666;48.898;9.182;2023-03-01T06:32:14;26.40;;;15.98;;
3307;SDS011;1666;48.898;9.182;2023-03-01T06:34:45;32.85;;;17.35;;
3307;SDS011;1666;48.898;9.182;2023-03-01T06:37:14;29.27;;;16.13;;
3307;SDS011;1666;48.898;9.182;2023-03-01T06:39:44;27.52;;;14.85;;
3307;SDS011;1666;48.898;9.182;2023-03-01T06:42:14;32.38;;;16.85;;
3307;SDS011;1666;48.898;9.182;2023-03-01T06:44:44;30.65;;;16.38;;
3307;SDS011;1666;48.898;9.182;2023-03-01T06:47:17;31.05;;;16.73;;
3307;SDS011;1666;48.898;9.182;2023-03-01T06:49:47;30.63;;;16.05;;
3307;SDS011;1666;48.898;9.182;2023-03-01T06:52:16;32.60;;;16.27;;
3307;SDS011;1666;48.898;9.182;2023-03-01T06:54:46;28.83;;;15.98;;
3307;SDS011;1666;48.898;9.182;2023-03-01T06:57:16;29.35;;;16.42;;
3307;SDS011;1666;48.898;9.182;2023-03-01T06:59:46;29.70;;;15.80;;
3307;SDS011;1666;48.898;9.182;2023-03-01T07:02:19;28.77;;;16.80;;
3307;SDS011;1666;48.898;9.182;2023-03-01T07:04:49;34.20;;;17.33;;
3307;SDS011;1666;48.898;9.182;2023-03-01T07:07:18;35.83;;;17.85;;
3307;SDS011;1666;48.898;9.182;2023-03-01T07:09:49;33.42;;;17.88;;
3307;SDS011;1666;48.898;9.182;2023-03-01T07:12:19;33.58;;;17.85;;
3307;SDS011;1666;48.898;9.182;2023-03-01T07:14:51;36.97;;;17.83;;
3307;SDS011;1666;48.898;9.182;2023-03-01T07:17:23;36.22;;;17.77;;
3307;SDS011;1666;48.898;9.182;2023-03-01T07:19:53;40.63;;;19.85;;
3307;SDS011;1666;48.898;9.182;2023-03-01T07:22:23;31.38;;;16.65;;
3307;SDS011;1666;48.898;9.182;2023-03-01T07:24:53;35.20;;;17.15;;
3307;SDS011;1666;48.898;9.182;2023-03-01T07:27:23;33.40;;;17.20;;
3307;SDS011;1666;48.898;9.182;2023-03-01T07:29:52;34.53;;;17.52;;
3307;SDS011;1666;48.898;9.182;2023-03-01T07:32:25;34.38;;;17.05;;
3307;SDS011;1666;48.898;9.182;2023-03-01T07:34:55;30.35;;;15.95;;
3307;SDS011;1666;48.898;9.182;2023-03-01T07:37:25;33.00;;;17.58;;
3307;SDS011;1666;48.898;9.182;2023-03-01T07:39:55;33.38;;;18.27;;
3307;SDS011;1666;48.898;9.182;2023-03-01T07:42:24;30.05;;;16.48;;
3307;SDS011;1666;48.898;9.182;2023-03-01T07:44:54;34.60;;;16.75;;
3307;SDS011;1666;48.898;9.182;2023-03-01T07:47:27;35.17;;;18.88;;
3307;SDS011;1666;48.898;9.182;2023-03-01T07:49:57;33.28;;;16.48;;
3307;SDS011;1666;48.898;9.182;2023-03-01T07:52:27;29.75;;;17.92;;
3307;SDS011;1666;48.898;9.182;2023-03-01T07:54:57;34.65;;;17.15;;
3307;SDS011;1666;48.898;9.182;2023-03-01T07:57:27;36.50;;;17.80;;
3307;SDS011;1666;48.898;9.182;2023-03-01T07:59:57;30.13;;;15.82;;
3307;SDS011;1666;48.898;9.182;2023-03-01T08:02:30;31.77;;;16.92;;
3307;SDS011;1666;48.898;9.182;2023-03-01T08:05:00;30.75;;;16.63;;
3307;SDS011;1666;48.898;9.182;2023-03-01T08:07:30;32.22;;;16.15;;
3307;SDS011;1666;48.898;9.182;2023-03-01T08:09:59;34.58;;;16.08;;
3307;SDS011;1666;48.898;9.182;2023-03-01T08:12:29;39.72;;;18.35;;
3307;SDS011;1666;48.898;9.182;2023-03-01T08:14:59;32.88;;;15.85;;
3307;SDS011;1666;48.898;9.182;2023-03-01T08:17:31;35.05;;;17.10;;
3307;SDS011;1666;48.898;9.182;2023-03-01T08:20:01;34.13;;;15.63;;
3307;SDS011;1666;48.898;9.182;2023-03-01T08:22:33;33.15;;;16.75;;
3307;SDS011;1666;48.898;9.182;2023-03-01T08:25:03;31.00;;;17.15;;
3307;SDS011;1666;48.898;9.182;2023-03-01T08:27:34;31.33;;;16.55;;
3307;SDS011;1666;48.898;9.182;2023-03-01T08:30:04;35.55;;;17.35;;
3307;SDS011;1666;48.898;9.182;2023-03-01T08:32:38;32.15;;;16.13;;
3307;SDS011;1666;48.898;9.182;2023-03-01T08:35:09;37.80;;;18.25;;
3307;SDS011;1666;48.898;9.182;2023-03-01T08:37:39;32.05;;;16.73;;
3307;SDS011;1666;48.898;9.182;2023-03-01T08:40:09;31.77;;;16.80;;
3307;SDS011;1666;48.898;9.182;2023-03-01T08:42:40;33.95;;;16.63;;
3307;SDS011;1666;48.898;9.182;2023-03-01T08:45:12;28.40;;;15.88;;
3307;SDS011;1666;48.898;9.182;2023-03-01T08:47:47;36.13;;;17.10;;
3307;SDS011;1666;48.898;9.182;2023-03-01T08:50:17;32.42;;;16.67;;
3307;SDS011;1666;48.898;9.182;2023-03-01T08:52:47;29.73;;;16.63;;
3307;SDS011;1666;48.898;9.182;2023-03-01T08:55:16;32.42;;;16.23;;
3307;SDS011;1666;48.898;9.182;2023-03-01T08:57:46;30.58;;;16.40;;
3307;SDS011;1666;48.898;9.182;2023-03-01T09:00:16;30.30;;;16.80;;
3307;SDS011;1666;48.898;9.182;2023-03-01T09:02:51;33.13;;;16.67;;
3307;SDS011;1666;48.898;9.182;2023-03-01T09:05:20;28.58;;;15.30;;
3307;SDS011;1666;48.898;9.182;2023-03-01T09:07:50;29.85;;;15.32;;
3307;SDS011;1666;48.898;9.182;2023-03-01T09:10:20;32.05;;;16.42;;
3307;SDS011;1666;48.898;9.182;2023-03-01T09:12:50;29.27;;;16.00;;
3307;SDS011;1666;48.898;9.182;2023-03-01T09:15:20;33.10;;;17.30;;
3307;SDS011;1666;48.898;9.182;2023-03-01T09:17:53;29.67;;;16.45;;
3307;SDS011;1666;48.898;9.182;2023-03-01T09:20:22;32.50;;;16.92;;
3307;SDS011;1666;48.898;9.182;2023-03-01T09:22:52;31.77;;;15.70;;
3307;SDS011;1666;48.898;9.182;2023-03-01T09:25:22;31.05;;;16.15;;
3307;SDS011;1666;48.898;9.182;2023-03-01T09:27:52;33.47;;;15.73;;
3307;SDS011;1666;48.898;9.182;2023-03-01T09:30:22;32.95;;;16.98;;
3307;SDS011;1666;48.898;9.182;2023-03-01T09:32:55;29.45;;;16.73;;
3307;SDS011;1666;48.898;9.182;2023-03-01T09:35:25;31.23;;;15.90;;
3307;SDS011;1666;48.898;9.182;2023-03-01T09:37:55;28.30;;;16.27;;
3307;SDS011;1666;48.898;9.182;2023-03-01T09:40:25;28.85;;;16.02;;
3307;SDS011;1666;48.898;9.182;2023-03-01T09:43:02;30.48;;;16.23;;
3307;SDS011;1666;48.898;9.182;2023-03-01T09:45:38;29.40;;;15.80;;
3307;SDS011;1666;48.898;9.182;2023-03-01T09:48:14;31.17;;;17.38;;
3307;SDS011;1666;48.898;9.182;2023-03-01T09:50:48;30.85;;;16.60;;
3307;SDS011;1666;48.898;9.182;2023-03-01T09:53:20;30.75;;;16.48;;
3307;SDS011;1666;48.898;9.182;2023-03-01T09:55:53;28.85;;;15.98;;
3307;SDS011;1666;48.898;9.182;2023-03-01T09:58:33;31.17;;;16.55;;
3307;SDS011;1666;48.898;9.182;2023-03-01T10:01:16;32.08;;;16.88;;
3307;SDS011;1666;48.898;9.182;2023-03-01T10:04:09;32.75;;;16.60;;
3307;SDS011;1666;48.898;9.182;2023-03-01T10:06:56;28.83;;;15.52;;
3307;SDS011;1666;48.898;9.182;2023-03-01T10:09:35;29.15;;;15.75;;
3307;SDS011;1666;48.898;9.182;2023-03-01T10:12:08;28.08;;;16.38;;
3307;SDS011;1666;48.898;9.182;2023-03-01T10:14:43;28.38;;;16.42;;
3307;SDS011;1666;48.898;9.182;2023-03-01T10:17:27;27.90;;;15.88;;
3307;SDS011;1666;48.898;9.182;2023-03-01T10:20:21;26.40;;;15.55;;
3307;SDS011;1666;48.898;9.182;2023-03-01T10:22:52;26.40;;;15.68;;
3307;SDS011;1666;48.898;9.182;2023-03-01T10:25:25;28.08;;;16.27;;
3307;SDS011;1666;48.898;9.182;2023-03-01T10:28:10;25.05;;;15.35;;
3307;SDS011;1666;48.898;9.182;2023-03-01T10:30:46;30.33;;;17.63;;
3307;SDS011;1666;48.898;9.182;2023-03-01T10:33:17;27.48;;;15.70;;
3307;SDS011;1666;48.898;9.182;2023-03-01T10:35:53;29.30;;;15.70;;
3307;SDS011;1666;48.898;9.182;2023-03-01T10:38:23;26.15;;;14.77;;
3307;SDS011;1666;48.898;9.182;2023-03-01T10:40:56;26.67;;;15.00;;
3307;SDS011;1666;48.898;9.182;2023-03-01T10:43:30;27.45;;;16.23;;
3307;SDS011;1666;48.898;9.182;2023-03-01T10:46:21;30.65;;;16.08;;
3307;SDS011;1666;48.898;9.182;2023-03-01T10:49:06;27.42;;;15.70;;
3307;SDS011;1666;48.898;9.182;2023-03-01T10:51:44;26.02;;;15.00;;
3307;SDS011;1666;48.898;9.182;2023-03-01T10:54:16;27.70;;;15.18;;
3307;SDS011;1666;48.898;9.182;2023-03-01T10:56:48;27.00;;;15.73;;
3307;SDS011;1666;48.898;9.182;2023-03-01T10:59:22;30.10;;;15.32;;
3307;SDS011;1666;48.898;9.182;2023-03-01T11:02:03;27.05;;;15.68;;
3307;SDS011;1666;48.898;9.182;2023-03-01T11:04:57;32.08;;;15.52;;
3307;SDS011;1666;48.898;9.182;2023-03-01T11:07:32;25.33;;;15.00;;
3307;SDS011;1666;48.898;9.182;2023-03-01T11:10:20;24.92;;;14.60;;
3307;SDS011;1666;48.898;9.182;2023-03-01T11:12:51;27.20;;;14.55;;
3307;SDS011;1666;48.898;9.182;2023-03-01T11:15:23;28.50;;;16.60;;
3307;SDS011;1666;48.898;9.182;2023-03-01T11:17:55;25.65;;;15.18;;
3307;SDS011;1666;48.898;9.182;2023-03-01T11:20:39;25.45;;;14.50;;
3307;SDS011;1666;48.898;9.182;2023-03-01T11:23:13;25.15;;;15.40;;
3307;SDS011;1666;48.898;9.182;2023-03-01T11:25:46;27.27;;;15.90;;
3307;SDS011;1666;48.898;9.182;2023-03-01T11:28:20;25.90;;;14.77;;
3307;SDS011;1666;48.898;9.182;2023-03-01T11:30:54;26.92;;;15.20;;
3307;SDS011;1666;48.898;9.182;2023-03-01T11:33:37;24.88;;;14.68;;
3307;SDS011;1666;48.898;9.182;2023-03-01T11:36:16;28.83;;;14.82;;
3307;SDS011;1666;48.898;9.182;2023-03-01T11:38:58;31.30;;;15.07;;
3307;SDS011;1666;48.898;9.182;2023-03-01T11:41:33;26.60;;;14.88;;
3307;SDS011;1666;48.898;9.182;2023-03-01T11:44:09;27.05;;;14.52;;
3307;SDS011;1666;48.898;9.182;2023-03-01T11:46:51;26.75;;;15.30;;
3307;SDS011;1666;48.898;9.182;2023-03-01T11:49:48;23.52;;;14.20;;
3307;SDS011;1666;48.898;9.182;2023-03-01T11:52:35;25.67;;;15.05;;
3307;SDS011;1666;48.898;9.182;2023-03-01T11:55:24;26.63;;;14.10;;
3307;SDS011;1666;48.898;9.182;2023-03-01T12:03:52;26.02;;;14.68;;
3307;SDS011;1666;48.898;9.182;2023-03-01T12:06:35;29.25;;;15.13;;
3307;SDS011;1666;48.898;9.182;2023-03-01T12:12:27;26.38;;;15.40;;
3307;SDS011;1666;48.898;9.182;2023-03-01T12:15:17;27.95;;;15.25;;
3307;SDS011;1666;48.898;9.182;2023-03-01T12:18:14;23.70;;;14.82;;
3307;SDS011;1666;48.898;9.182;2023-03-01T12:21:05;23.80;;;14.05;;
3307;SDS011;1666;48.898;9.182;2023-03-01T12:23:55;24.88;;;14.25;;
3307;SDS011;1666;48.898;9.182;2023-03-01T12:26:45;24.25;;;13.88;;
3307;SDS011;1666;48.898;9.182;2023-03-01T12:29:31;26.67;;;15.30;;
3307;SDS011;1666;48.898;9.182;2023-03-01T12:32:13;24.13;;;14.43;;
3307;SDS011;1666;48.898;9.182;2023-03-01T12:34:53;24.15;;;15.35;;
3307;SDS011;1666;48.898;9.182;2023-03-01T12:37:36;31.10;;;15.40;;
3307;SDS011;1666;48.898;9.182;2023-03-01T12:40:23;22.30;;;14.52;;
3307;SDS011;1666;48.898;9.182;2023-03-01T12:43:08;26.30;;;15.57;;
3307;SDS011;1666;48.898;9.182;2023-03-01T12:45:53;25.65;;;14.57;;
3307;SDS011;1666;48.898;9.182;2023-03-01T12:48:37;24.23;;;15.00;;
3307;SDS011;1666;48.898;9.182;2023-03-01T12:51:15;24.27;;;14.15;;
3307;SDS011;1666;48.898;9.182;2023-03-01T12:53:50;23.83;;;14.13;;
3307;SDS011;1666;48.898;9.182;2023-03-01T12:56:23;29.55;;;15.88;;
3307;SDS011;1666;48.898;9.182;2023-03-01T12:58:57;27.73;;;16.30;;
3307;SDS011;1666;48.898;9.182;2023-03-01T13:01:36;24.45;;;15.43;;
3307;SDS011;1666;48.898;9.182;2023-03-01T13:04:16;24.33;;;14.25;;
3307;SDS011;1666;48.898;9.182;2023-03-01T13:07:07;24.75;;;14.50;;
3307;SDS011;1666;48.898;9.182;2023-03-01T13:09:47;20.05;;;13.35;;
3307;SDS011;1666;48.898;9.182;2023-03-01T13:12:50;22.23;;;13.38;;
3307;SDS011;1666;48.898;9.182;2023-03-01T13:15:25;20.70;;;13.55;;
3307;SDS011;1666;48.898;9.182;2023-03-01T13:21:01;24.80;;;13.52;;
3307;SDS011;1666;48.898;9.182;2023-03-01T13:23:33;23.75;;;13.93;;
3307;SDS011;1666;48.898;9.182;2023-03-01T13:26:09;23.73;;;14.40;;
3307;SDS011;1666;48.898;9.182;2023-03-01T13:28:46;23.75;;;14.20;;
3307;SDS011;1666;48.898;9.182;2023-03-01T13:34:50;24.77;;;14.82;;
3307;SDS011;1666;48.898;9.182;2023-03-01T13:45:59;22.42;;;14.55;;
3307;SDS011;1666;48.898;9.182;2023-03-01T13:48:30;24.75;;;15.30;;
3307;SDS011;1666;48.898;9.182;2023-03-01T13:51:05;27.83;;;15.27;;
3307;SDS011;1666;48.898;9.182;2023-03-01T13:53:39;24.13;;;15.45;;
3307;SDS011;1666;48.898;9.182;2023-03-01T13:56:12;24.15;;;14.15;;
3307;SDS011;1666;48.898;9.182;2023-03-01T13:58:49;39.47;;;16.63;;
3307;SDS011;1666;48.898;9.182;2023-03-01T14:01:25;25.88;;;15.57;;
3307;SDS011;1666;48.898;9.182;2023-03-01T14:03:58;25.98;;;15.25;;
3307;SDS011;1666;48.898;9.182;2023-03-01T14:06:32;23.75;;;14.80;;
3307;SDS011;1666;48.898;9.182;2023-03-01T14:09:04;24.63;;;14.25;;
3307;SDS011;1666;48.898;9.182;2023-03-01T14:11:55;26.23;;;15.82;;
3307;SDS011;1666;48.898;9.182;2023-03-01T14:14:47;25.95;;;14.70;;
3307;SDS011;1666;48.898;9.182;2023-03-01T14:20:36;25.58;;;14.93;;
3307;SDS011;1666;48.898;9.182;2023-03-01T14:23:13;22.48;;;15.10;;
3307;SDS011;1666;48.898;9.182;2023-03-01T14:25:46;25.08;;;15.82;;
3307;SDS011;1666;48.898;9.182;2023-03-01T14:28:18;25.52;;;15.15;;
3307;SDS011;1666;48.898;9.182;2023-03-01T14:30:51;29.98;;;15.77;;
3307;SDS011;1666;48.898;9.182;2023-03-01T14:33:22;26.92;;;14.82;;
3307;SDS011;1666;48.898;9.182;2023-03-01T14:35:54;25.77;;;15.13;;
3307;SDS011;1666;48.898;9.182;2023-03-01T14:38:33;25.40;;;15.27;;
3307;SDS011;1666;48.898;9.182;2023-03-01T14:41:05;25.83;;;16.38;;
3307;SDS011;1666;48.898;9.182;2023-03-01T14:43:37;24.48;;;14.93;;
3307;SDS011;1666;48.898;9.182;2023-03-01T14:46:16;23.85;;;14.75;;
3307;SDS011;1666;48.898;9.182;2023-03-01T14:48:49;25.02;;;14.88;;
3307;SDS011;1666;48.898;9.182;2023-03-01T14:51:20;26.35;;;14.70;;
3307;SDS011;1666;48.898;9.182;2023-03-01T14:53:52;23.23;;;15.20;;
3307;SDS011;1666;48.898;9.182;2023-03-01T14:56:23;25.23;;;16.08;;
3307;SDS011;1666;48.898;9.182;2023-03-01T14:58:53;25.45;;;15.30;;
3307;SDS011;1666;48.898;9.182;2023-03-01T15:01:27;23.98;;;14.32;;
3307;SDS011;1666;48.898;9.182;2023-03-01T15:03:57;27.55;;;15.23;;
3307;SDS011;1666;48.898;9.182;2023-03-01T15:06:27;26.08;;;15.80;;
3307;SDS011;1666;48.898;9.182;2023-03-01T15:09:00;26.83;;;15.63;;
3307;SDS011;1666;48.898;9.182;2023-03-01T15:11:31;26.67;;;16.23;;
3307;SDS011;1666;48.898;9.182;2023-03-01T15:14:05;29.13;;;15.50;;
3307;SDS011;1666;48.898;9.182;2023-03-01T15:16:55;26.33;;;15.85;;
3307;SDS011;1666;48.898;9.182;2023-03-01T15:19:26;27.95;;;15.73;;
3307;SDS011;1666;48.898;9.182;2023-03-01T15:21:57;30.65;;;15.65;;
3307;SDS011;1666;48.898;9.182;2023-03-01T15:24:41;27.70;;;14.90;;
3307;SDS011;1666;48.898;9.182;2023-03-01T15:27:15;28.08;;;15.35;;
3307;SDS011;1666;48.898;9.182;2023-03-01T15:29:48;27.92;;;15.95;;
3307;SDS011;1666;48.898;9.182;2023-03-01T15:32:26;27.20;;;15.77;;
3307;SDS011;1666;48.898;9.182;2023-03-01T15:34:57;25.05;;;14.98;;
3307;SDS011;1666;48.898;9.182;2023-03-01T15:37:38;25.10;;;15.35;;
3307;SDS011;1666;48.898;9.182;2023-03-01T15:40:23;24.40;;;14.73;;
3307;SDS011;1666;48.898;9.182;2023-03-01T15:42:58;22.77;;;14.52;;
3307;SDS011;1666;48.898;9.182;2023-03-01T15:45:28;25.23;;;14.60;;
3307;SDS011;1666;48.898;9.182;2023-03-01T15:48:00;23.70;;;15.40;;
3307;SDS011;1666;48.898;9.182;2023-03-01T15:50:33;22.58;;;14.48;;
3307;SDS011;1666;48.898;9.182;2023-03-01T15:53:07;23.80;;;14.52;;